sensor_id;sensor_type;location;lat;lon;timestamp;pressure;altitude;pressure_sealevel;temperature;humidity
11912;BME280;6016;41.928;25.556;2023-05-19T00:00:44;98949.50;;;15.70;69.59
11912;BME280;6016;41.928;25.556;2023-05-19T00:03:11;98956.69;;;15.70;69.76
11912;BME280;6016;41.928;25.556;2023-05-19T00:05:41;98951.53;;;15.68;69.90
11912;BME280;6016;41.928;25.556;2023-05-19T00:08:10;98947.34;;;15.74;69.84
11912;BME280;6016;41.928;25.556;2023-05-19T00:10:38;98947.56;;;15.64;70.18
11912;BME280;6016;41.928;25.556;2023-05-19T00:13:07;98942.06;;;15.66;69.99
11912;BME280;6016;41.928;25.556;2023-05-19T00:15:34;98889.69;;;15.19;70.22
11912;BME280;6016;41.928;25.556;2023-05-19T00:18:01;98957.00;;;15.67;70.67
11912;BME280;6016;41.928;25.556;2023-05-19T00:20:28;98881.78;;;15.11;69.68
11912;BME280;6016;41.928;25.556;2023-05-19T00:22:55;98946.44;;;15.58;70.48
11912;BME280;6016;41.928;25.556;2023-05-19T00:25:22;98958.50;;;15.69;70.53
11912;BME280;6016;41.928;25.556;2023-05-19T00:27:48;98959.34;;;15.70;69.74
11912;BME280;6016;41.928;25.556;2023-05-19T00:30:17;98953.72;;;15.65;69.91
11912;BME280;6016;41.928;25.556;2023-05-19T00:32:43;98917.44;;;15.49;70.35
11912;BME280;6016;41.928;25.556;2023-05-19T00:35:10;98902.81;;;15.21;71.46
11912;BME280;6016;41.928;25.556;2023-05-19T00:37:37;98942.91;;;15.43;70.89
11912;BME280;6016;41.928;25.556;2023-05-19T00:40:05;98953.22;;;15.61;70.62
11912;BME280;6016;41.928;25.556;2023-05-19T00:42:33;98887.00;;;15.28;71.30
11912;BME280;6016;41.928;25.556;2023-05-19T00:45:00;98936.69;;;15.51;70.30
11912;BME280;6016;41.928;25.556;2023-05-19T00:47:28;98945.94;;;15.63;70.30
11912;BME280;6016;41.928;25.556;2023-05-19T00:49:55;98910.72;;;15.29;70.77
11912;BME280;6016;41.928;25.556;2023-05-19T00:52:22;98858.31;;;14.91;70.58
11912;BME280;6016;41.928;25.556;2023-05-19T00:54:50;98934.72;;;15.44;71.05
11912;BME280;6016;41.928;25.556;2023-05-19T00:57:17;98933.06;;;15.43;71.75
11912;BME280;6016;41.928;25.556;2023-05-19T00:59:44;98941.00;;;15.52;71.32
11912;BME280;6016;41.928;25.556;2023-05-19T01:02:10;98940.81;;;15.53;71.45
11912;BME280;6016;41.928;25.556;2023-05-19T01:04:39;98891.78;;;15.32;72.11
11912;BME280;6016;41.928;25.556;2023-05-19T01:07:08;98894.94;;;15.36;73.04
11912;BME280;6016;41.928;25.556;2023-05-19T01:09:35;98939.28;;;15.59;71.76
11912;BME280;6016;41.928;25.556;2023-05-19T01:12:02;98900.06;;;15.06;72.61
11912;BME280;6016;41.928;25.556;2023-05-19T01:14:29;98948.53;;;15.40;71.96
11912;BME280;6016;41.928;25.556;2023-05-19T01:17:00;98935.72;;;15.43;72.29
11912;BME280;6016;41.928;25.556;2023-05-19T01:19:44;98931.53;;;15.49;71.84
11912;BME280;6016;41.928;25.556;2023-05-19T01:22:26;98874.72;;;14.95;72.34
11912;BME280;6016;41.928;25.556;2023-05-19T01:25:35;98940.41;;;15.41;71.89
11912;BME280;6016;41.928;25.556;2023-05-19T01:28:37;98885.66;;;15.00;72.66
11912;BME280;6016;41.928;25.556;2023-05-19T01:31:16;98935.44;;;15.38;72.81
11912;BME280;6016;41.928;25.556;2023-05-19T01:33:48;98933.97;;;15.36;73.12
11912;BME280;6016;41.928;25.556;2023-05-19T01:36:18;98935.25;;;15.40;72.87
11912;BME280;6016;41.928;25.556;2023-05-19T01:38:46;98931.59;;;15.41;72.44
11912;BME280;6016;41.928;25.556;2023-05-19T01:41:14;98930.94;;;15.39;72.03
11912;BME280;6016;41.928;25.556;2023-05-19T01:43:41;98893.56;;;15.17;73.22
11912;BME280;6016;41.928;25.556;2023-05-19T01:46:09;98859.78;;;14.94;72.34
11912;BME280;6016;41.928;25.556;2023-05-19T01:48:37;98898.28;;;14.98;73.53
11912;BME280;6016;41.928;25.556;2023-05-19T01:51:04;98934.84;;;15.28;73.12
11912;BME280;6016;41.928;25.556;2023-05-19T01:53:31;98929.50;;;15.28;72.67
11912;BME280;6016;41.928;25.556;2023-05-19T01:55:58;98927.75;;;15.12;72.87
11912;BME280;6016;41.928;25.556;2023-05-19T01:58:30;98912.69;;;15.04;73.31
11912;BME280;6016;41.928;25.556;2023-05-19T02:01:05;98881.50;;;14.98;73.24
11912;BME280;6016;41.928;25.556;2023-05-19T02:03:43;98930.03;;;15.23;73.21
11912;BME280;6016;41.928;25.556;2023-05-19T02:06:21;98930.03;;;15.23;73.46
11912;BME280;6016;41.928;25.556;2023-05-19T02:08:55;98838.66;;;14.61;73.14
11912;BME280;6016;41.928;25.556;2023-05-19T02:11:26;98926.53;;;15.23;73.47
11912;BME280;6016;41.928;25.556;2023-05-19T02:13:56;98924.00;;;15.29;74.81
11912;BME280;6016;41.928;25.556;2023-05-19T02:16:27;98841.47;;;14.76;73.38
11912;BME280;6016;41.928;25.556;2023-05-19T02:18:56;98926.84;;;15.28;73.29
11912;BME280;6016;41.928;25.556;2023-05-19T02:21:23;98926.81;;;15.36;73.25
11912;BME280;6016;41.928;25.556;2023-05-19T02:23:50;98878.84;;;14.98;73.05
11912;BME280;6016;41.928;25.556;2023-05-19T02:26:17;98932.34;;;15.26;74.38
11912;BME280;6016;41.928;25.556;2023-05-19T02:28:44;98877.75;;;14.84;73.13
11912;BME280;6016;41.928;25.556;2023-05-19T02:31:11;98583.81;;;12.86;73.66
11912;BME280;6016;41.928;25.556;2023-05-19T02:33:37;98925.75;;;15.14;73.71
11912;BME280;6016;41.928;25.556;2023-05-19T02:36:06;98685.66;;;13.65;74.01
11912;BME280;6016;41.928;25.556;2023-05-19T02:38:34;98921.34;;;14.98;73.24
11912;BME280;6016;41.928;25.556;2023-05-19T02:41:01;98932.59;;;15.08;74.01
11912;BME280;6016;41.928;25.556;2023-05-19T02:43:27;98635.75;;;13.12;73.18
11912;BME280;6016;41.928;25.556;2023-05-19T02:45:54;98958.63;;;15.13;74.78
11912;BME280;6016;41.928;25.556;2023-05-19T02:48:21;98961.28;;;15.13;73.81
11912;BME280;6016;41.928;25.556;2023-05-19T02:50:48;98965.13;;;15.10;73.02
11912;BME280;6016;41.928;25.556;2023-05-19T02:53:16;98970.91;;;15.14;73.40
11912;BME280;6016;41.928;25.556;2023-05-19T02:55:43;98976.06;;;15.24;73.25
11912;BME280;6016;41.928;25.556;2023-05-19T02:58:10;98935.47;;;14.98;73.38
11912;BME280;6016;41.928;25.556;2023-05-19T03:00:37;98937.03;;;14.76;72.74
11912;BME280;6016;41.928;25.556;2023-05-19T03:03:03;98996.03;;;15.11;71.93
11912;BME280;6016;41.928;25.556;2023-05-19T03:05:30;98976.22;;;15.14;73.81
11912;BME280;6016;41.928;25.556;2023-05-19T03:07:57;98969.06;;;15.23;73.17
11912;BME280;6016;41.928;25.556;2023-05-19T03:10:25;98890.19;;;14.83;72.70
11912;BME280;6016;41.928;25.556;2023-05-19T03:12:52;98977.00;;;15.31;72.68
11912;BME280;6016;41.928;25.556;2023-05-19T03:15:19;98957.91;;;15.27;72.42
11912;BME280;6016;41.928;25.556;2023-05-19T03:17:47;98987.72;;;15.46;72.18
11912;BME280;6016;41.928;25.556;2023-05-19T03:20:14;98995.88;;;15.44;72.92
11912;BME280;6016;41.928;25.556;2023-05-19T03:22:41;98939.09;;;15.05;72.54
11912;BME280;6016;41.928;25.556;2023-05-19T03:25:08;98997.66;;;15.52;72.03
11912;BME280;6016;41.928;25.556;2023-05-19T03:27:37;98960.91;;;15.24;72.04
11912;BME280;6016;41.928;25.556;2023-05-19T03:30:04;99000.00;;;15.47;72.94
11912;BME280;6016;41.928;25.556;2023-05-19T03:32:31;99007.47;;;15.52;71.62
11912;BME280;6016;41.928;25.556;2023-05-19T03:34:58;98940.94;;;14.97;72.74
11912;BME280;6016;41.928;25.556;2023-05-19T03:37:25;99007.63;;;15.50;72.73
11912;BME280;6016;41.928;25.556;2023-05-19T03:39:51;98999.16;;;15.46;72.26
11912;BME280;6016;41.928;25.556;2023-05-19T03:42:18;99032.25;;;15.44;72.37
11912;BME280;6016;41.928;25.556;2023-05-19T03:44:46;98973.63;;;15.05;72.39
11912;BME280;6016;41.928;25.556;2023-05-19T03:47:13;99015.19;;;15.38;72.29
11912;BME280;6016;41.928;25.556;2023-05-19T03:49:40;98976.81;;;15.01;73.48
11912;BME280;6016;41.928;25.556;2023-05-19T03:52:07;99009.75;;;15.23;72.89
11912;BME280;6016;41.928;25.556;2023-05-19T03:54:34;99024.19;;;15.29;73.52
11912;BME280;6016;41.928;25.556;2023-05-19T03:57:01;98961.44;;;14.80;73.22
11912;BME280;6016;41.928;25.556;2023-05-19T03:59:28;98967.34;;;14.90;73.10
11912;BME280;6016;41.928;25.556;2023-05-19T04:01:57;98962.72;;;14.92;73.44
11912;BME280;6016;41.928;25.556;2023-05-19T04:04:24;98957.56;;;14.99;73.64
11912;BME280;6016;41.928;25.556;2023-05-19T04:06:50;99031.41;;;15.52;72.97
11912;BME280;6016;41.928;25.556;2023-05-19T04:09:18;98874.69;;;14.55;72.51
11912;BME280;6016;41.928;25.556;2023-05-19T04:11:44;99039.16;;;15.61;71.42
11912;BME280;6016;41.928;25.556;2023-05-19T04:14:11;99050.28;;;15.65;72.42
11912;BME280;6016;41.928;25.556;2023-05-19T04:16:38;99048.91;;;15.69;72.14
11912;BME280;6016;41.928;25.556;2023-05-19T04:19:07;99048.22;;;15.75;72.07
11912;BME280;6016;41.928;25.556;2023-05-19T04:21:34;99049.88;;;15.77;71.46
11912;BME280;6016;41.928;25.556;2023-05-19T04:24:01;98945.06;;;15.08;71.49
11912;BME280;6016;41.928;25.556;2023-05-19T04:26:33;99042.97;;;15.59;72.68
11912;BME280;6016;41.928;25.556;2023-05-19T04:29:00;99061.84;;;15.72;72.15
11912;BME280;6016;41.928;25.556;2023-05-19T04:31:29;99063.22;;;15.68;72.43
11912;BME280;6016;41.928;25.556;2023-05-19T04:33:57;99066.66;;;15.77;72.60
11912;BME280;6016;41.928;25.556;2023-05-19T04:36:27;99062.81;;;15.80;73.35
11912;BME280;6016;41.928;25.556;2023-05-19T04:38:54;99012.81;;;15.43;72.78
11912;BME280;6016;41.928;25.556;2023-05-19T04:41:26;99073.25;;;15.89;73.18
11912;BME280;6016;41.928;25.556;2023-05-19T04:43:53;99054.97;;;15.86;72.24
11912;BME280;6016;41.928;25.556;2023-05-19T04:46:21;99090.69;;;16.00;72.32
11912;BME280;6016;41.928;25.556;2023-05-19T04:48:50;99020.25;;;15.56;72.99
11912;BME280;6016;41.928;25.556;2023-05-19T04:51:17;99037.50;;;15.60;72.57
11912;BME280;6016;41.928;25.556;2023-05-19T04:53:45;99082.09;;;16.13;71.76
11912;BME280;6016;41.928;25.556;2023-05-19T04:56:12;99086.25;;;16.16;72.18
11912;BME280;6016;41.928;25.556;2023-05-19T04:58:39;98920.63;;;15.12;71.59
11912;BME280;6016;41.928;25.556;2023-05-19T05:01:06;99083.63;;;16.08;72.49
11912;BME280;6016;41.928;25.556;2023-05-19T05:03:34;99042.47;;;15.95;72.75
11912;BME280;6016;41.928;25.556;2023-05-19T05:06:01;98799.75;;;14.45;72.99
11912;BME280;6016;41.928;25.556;2023-05-19T05:08:28;99091.47;;;16.33;72.50
11912;BME280;6016;41.928;25.556;2023-05-19T05:10:57;99096.72;;;16.41;72.42
11912;BME280;6016;41.928;25.556;2023-05-19T05:13:25;99048.31;;;15.91;73.27
11912;BME280;6016;41.928;25.556;2023-05-19T05:15:52;99100.56;;;16.38;73.66
11912;BME280;6016;41.928;25.556;2023-05-19T05:18:20;98996.72;;;15.68;73.31
11912;BME280;6016;41.928;25.556;2023-05-19T05:20:48;99100.69;;;16.45;73.10
11912;BME280;6016;41.928;25.556;2023-05-19T05:23:15;99093.22;;;16.40;72.61
11912;BME280;6016;41.928;25.556;2023-05-19T05:25:43;99100.22;;;16.65;72.34
11912;BME280;6016;41.928;25.556;2023-05-19T05:28:11;98984.44;;;15.67;71.72
11912;BME280;6016;41.928;25.556;2023-05-19T05:30:38;99105.31;;;16.51;72.09
11912;BME280;6016;41.928;25.556;2023-05-19T05:33:06;98954.94;;;15.54;72.66
11912;BME280;6016;41.928;25.556;2023-05-19T05:35:33;99108.53;;;16.62;72.60
11912;BME280;6016;41.928;25.556;2023-05-19T05:38:00;99120.69;;;16.64;72.50
11912;BME280;6016;41.928;25.556;2023-05-19T05:40:27;99117.97;;;16.72;72.53
11912;BME280;6016;41.928;25.556;2023-05-19T05:42:54;99053.53;;;16.30;73.21
11912;BME280;6016;41.928;25.556;2023-05-19T05:45:22;99130.75;;;16.77;73.28
11912;BME280;6016;41.928;25.556;2023-05-19T05:47:50;99123.56;;;16.78;72.95
11912;BME280;6016;41.928;25.556;2023-05-19T05:50:17;99126.97;;;16.86;72.92
11912;BME280;6016;41.928;25.556;2023-05-19T05:52:45;99131.75;;;16.76;72.82
11912;BME280;6016;41.928;25.556;2023-05-19T05:55:13;99005.66;;;16.07;72.84
11912;BME280;6016;41.928;25.556;2023-05-19T05:57:41;99118.59;;;16.74;74.09
11912;BME280;6016;41.928;25.556;2023-05-19T06:00:09;99110.72;;;16.81;73.61
11912;BME280;6016;41.928;25.556;2023-05-19T06:02:43;99050.03;;;16.53;72.90
11912;BME280;6016;41.928;25.556;2023-05-19T06:05:10;99139.78;;;17.14;72.65
11912;BME280;6016;41.928;25.556;2023-05-19T06:07:38;99137.31;;;17.28;73.30
11912;BME280;6016;41.928;25.556;2023-05-19T06:10:06;99147.31;;;17.41;72.51
11912;BME280;6016;41.928;25.556;2023-05-19T06:12:33;99142.34;;;17.38;72.80
11912;BME280;6016;41.928;25.556;2023-05-19T06:15:01;99134.81;;;17.56;71.49
11912;BME280;6016;41.928;25.556;2023-05-19T06:17:28;99136.28;;;17.59;72.45
11912;BME280;6016;41.928;25.556;2023-05-19T06:19:56;99143.09;;;17.62;71.12
11912;BME280;6016;41.928;25.556;2023-05-19T06:22:23;99151.75;;;17.64;71.64
11912;BME280;6016;41.928;25.556;2023-05-19T06:24:50;98942.31;;;16.41;71.64
11912;BME280;6016;41.928;25.556;2023-05-19T06:27:17;99153.09;;;17.90;71.77
11912;BME280;6016;41.928;25.556;2023-05-19T06:29:44;99154.66;;;17.99;71.21
11912;BME280;6016;41.928;25.556;2023-05-19T06:32:10;99146.56;;;17.92;71.66
11912;BME280;6016;41.928;25.556;2023-05-19T06:34:37;99161.00;;;18.13;71.17
11912;BME280;6016;41.928;25.556;2023-05-19T06:37:06;99080.75;;;17.63;71.58
11912;BME280;6016;41.928;25.556;2023-05-19T06:39:33;99155.09;;;18.18;70.86
11912;BME280;6016;41.928;25.556;2023-05-19T06:41:59;99157.59;;;18.19;70.52
11912;BME280;6016;41.928;25.556;2023-05-19T06:44:26;99156.81;;;18.25;71.29
11912;BME280;6016;41.928;25.556;2023-05-19T06:46:53;99074.84;;;17.67;69.67
11912;BME280;6016;41.928;25.556;2023-05-19T06:49:20;99158.22;;;18.21;68.28
11912;BME280;6016;41.928;25.556;2023-05-19T06:51:46;99106.88;;;17.52;68.98
11912;BME280;6016;41.928;25.556;2023-05-19T06:54:15;99162.75;;;18.21;68.42
11912;BME280;6016;41.928;25.556;2023-05-19T06:56:41;98960.91;;;16.94;69.58
11912;BME280;6016;41.928;25.556;2023-05-19T06:59:09;99146.53;;;18.22;70.18
11912;BME280;6016;41.928;25.556;2023-05-19T07:01:36;99161.75;;;18.44;70.44
11912;BME280;6016;41.928;25.556;2023-05-19T07:04:03;99170.66;;;18.51;69.75
11912;BME280;6016;41.928;25.556;2023-05-19T07:06:30;99165.16;;;18.52;69.04
11912;BME280;6016;41.928;25.556;2023-05-19T07:08:57;99069.97;;;18.08;68.42
11912;BME280;6016;41.928;25.556;2023-05-19T07:11:25;98958.84;;;17.41;70.26
11912;BME280;6016;41.928;25.556;2023-05-19T07:13:52;98858.75;;;16.87;69.49
11912;BME280;6016;41.928;25.556;2023-05-19T07:16:18;99056.06;;;18.12;68.84
11912;BME280;6016;41.928;25.556;2023-05-19T07:18:45;99162.56;;;18.88;68.84
11912;BME280;6016;41.928;25.556;2023-05-19T07:21:12;99152.91;;;18.87;67.46
11912;BME280;6016;41.928;25.556;2023-05-19T07:23:39;99146.00;;;18.99;65.70
11912;BME280;6016;41.928;25.556;2023-05-19T07:26:06;99031.09;;;18.42;65.85
11912;BME280;6016;41.928;25.556;2023-05-19T07:28:34;99154.69;;;19.30;65.10
11912;BME280;6016;41.928;25.556;2023-05-19T07:31:01;99081.66;;;18.72;66.52
11912;BME280;6016;41.928;25.556;2023-05-19T07:33:28;99114.31;;;19.18;65.68
11912;BME280;6016;41.928;25.556;2023-05-19T07:35:54;99151.97;;;19.51;66.30
11912;BME280;6016;41.928;25.556;2023-05-19T07:38:21;99152.09;;;19.78;65.33
11912;BME280;6016;41.928;25.556;2023-05-19T07:40:48;99101.16;;;19.58;63.84
11912;BME280;6016;41.928;25.556;2023-05-19T07:43:15;99166.00;;;19.95;64.32
11912;BME280;6016;41.928;25.556;2023-05-19T07:45:43;99145.63;;;20.01;63.85
11912;BME280;6016;41.928;25.556;2023-05-19T07:48:10;99110.22;;;19.99;64.32
11912;BME280;6016;41.928;25.556;2023-05-19T07:50:37;99151.94;;;20.42;62.28
11912;BME280;6016;41.928;25.556;2023-05-19T07:53:04;99150.94;;;20.63;63.26
11912;BME280;6016;41.928;25.556;2023-05-19T07:55:30;99149.91;;;20.64;64.49
11912;BME280;6016;41.928;25.556;2023-05-19T07:57:57;99151.97;;;20.69;61.96
11912;BME280;6016;41.928;25.556;2023-05-19T08:00:24;99138.78;;;20.67;61.26
11912;BME280;6016;41.928;25.556;2023-05-19T08:02:52;99165.00;;;20.86;62.21
11912;BME280;6016;41.928;25.556;2023-05-19T08:05:21;99160.25;;;21.01;62.82
11912;BME280;6016;41.928;25.556;2023-05-19T08:07:48;99163.78;;;21.15;62.15
11912;BME280;6016;41.928;25.556;2023-05-19T08:10:14;99166.66;;;21.14;61.07
11912;BME280;6016;41.928;25.556;2023-05-19T08:12:41;99166.03;;;21.18;61.20
11912;BME280;6016;41.928;25.556;2023-05-19T08:15:09;99166.66;;;21.14;61.88
11912;BME280;6016;41.928;25.556;2023-05-19T08:17:36;99165.22;;;21.25;62.58
11912;BME280;6016;41.928;25.556;2023-05-19T08:20:05;99084.75;;;20.91;63.15
11912;BME280;6016;41.928;25.556;2023-05-19T08:22:33;99134.06;;;21.24;59.12
11912;BME280;6016;41.928;25.556;2023-05-19T08:25:00;99176.72;;;21.45;61.74
11912;BME280;6016;41.928;25.556;2023-05-19T08:27:28;99177.31;;;21.54;61.72
11912;BME280;6016;41.928;25.556;2023-05-19T08:29:55;99115.88;;;21.26;59.73
11912;BME280;6016;41.928;25.556;2023-05-19T08:32:22;99181.25;;;21.65;59.64
11912;BME280;6016;41.928;25.556;2023-05-19T08:34:49;99164.28;;;21.64;61.38
11912;BME280;6016;41.928;25.556;2023-05-19T08:37:17;99172.31;;;21.85;60.85
11912;BME280;6016;41.928;25.556;2023-05-19T08:39:44;99160.97;;;21.83;59.21
11912;BME280;6016;41.928;25.556;2023-05-19T08:42:11;99176.78;;;22.11;60.59
11912;BME280;6016;41.928;25.556;2023-05-19T08:44:37;99166.66;;;22.06;61.43
11912;BME280;6016;41.928;25.556;2023-05-19T08:47:06;99175.09;;;22.17;58.67
11912;BME280;6016;41.928;25.556;2023-05-19T08:49:42;98998.97;;;20.84;60.69
11912;BME280;6016;41.928;25.556;2023-05-19T08:52:18;99144.69;;;21.77;60.93
11912;BME280;6016;41.928;25.556;2023-05-19T08:54:52;99189.75;;;22.21;58.46
11912;BME280;6016;41.928;25.556;2023-05-19T08:57:20;99191.50;;;22.41;59.36
11912;BME280;6016;41.928;25.556;2023-05-19T08:59:49;99105.91;;;22.05;58.38
11912;BME280;6016;41.928;25.556;2023-05-19T09:02:17;99180.31;;;22.44;60.13
11912;BME280;6016;41.928;25.556;2023-05-19T09:04:45;99187.53;;;22.57;58.97
11912;BME280;6016;41.928;25.556;2023-05-19T09:07:13;98884.94;;;20.75;59.93
11912;BME280;6016;41.928;25.556;2023-05-19T09:09:41;99039.59;;;21.60;59.61
11912;BME280;6016;41.928;25.556;2023-05-19T09:12:09;99183.66;;;22.39;60.82
11912;BME280;6016;41.928;25.556;2023-05-19T09:14:36;99165.97;;;22.25;58.96
11912;BME280;6016;41.928;25.556;2023-05-19T09:17:04;99197.50;;;22.82;59.50
11912;BME280;6016;41.928;25.556;2023-05-19T09:19:31;99172.38;;;22.62;58.86
11912;BME280;6016;41.928;25.556;2023-05-19T09:21:58;99184.69;;;22.77;59.47
11912;BME280;6016;41.928;25.556;2023-05-19T09:24:27;98791.53;;;20.26;58.79
11912;BME280;6016;41.928;25.556;2023-05-19T09:26:56;99106.97;;;22.69;58.64
11912;BME280;6016;41.928;25.556;2023-05-19T09:29:23;99037.66;;;22.13;59.43
11912;BME280;6016;41.928;25.556;2023-05-19T09:31:50;99178.53;;;23.27;58.37
11912;BME280;6016;41.928;25.556;2023-05-19T09:34:19;99142.41;;;23.35;56.62
11912;BME280;6016;41.928;25.556;2023-05-19T09:36:47;99196.00;;;23.99;56.26
11912;BME280;6016;41.928;25.556;2023-05-19T09:39:17;99196.00;;;23.99;55.36
11912;BME280;6016;41.928;25.556;2023-05-19T09:41:45;99195.25;;;23.73;56.01
11912;BME280;6016;41.928;25.556;2023-05-19T09:44:20;99191.03;;;23.40;55.75
11912;BME280;6016;41.928;25.556;2023-05-19T09:46:48;99184.97;;;23.19;56.86
11912;BME280;6016;41.928;25.556;2023-05-19T09:49:18;99174.44;;;22.93;58.08
11912;BME280;6016;41.928;25.556;2023-05-19T09:51:48;99185.91;;;22.81;57.60
11912;BME280;6016;41.928;25.556;2023-05-19T09:54:15;99045.97;;;21.73;58.05
11912;BME280;6016;41.928;25.556;2023-05-19T09:56:42;99049.28;;;22.07;57.93
11912;BME280;6016;41.928;25.556;2023-05-19T09:59:09;99026.38;;;22.04;57.62
11912;BME280;6016;41.928;25.556;2023-05-19T10:01:39;99013.78;;;21.98;57.95
11912;BME280;6016;41.928;25.556;2023-05-19T10:04:10;99029.06;;;21.59;60.17
11912;BME280;6016;41.928;25.556;2023-05-19T10:06:38;99173.50;;;22.41;59.02
11912;BME280;6016;41.928;25.556;2023-05-19T10:09:07;99150.94;;;22.10;60.57
11912;BME280;6016;41.928;25.556;2023-05-19T10:11:35;99169.19;;;22.01;61.24
11912;BME280;6016;41.928;25.556;2023-05-19T10:14:03;99164.19;;;22.05;61.27
11912;BME280;6016;41.928;25.556;2023-05-19T10:16:30;99124.47;;;21.68;60.68
11912;BME280;6016;41.928;25.556;2023-05-19T10:19:00;98968.00;;;21.02;59.77
11912;BME280;6016;41.928;25.556;2023-05-19T10:21:27;98951.00;;;21.21;58.33
11912;BME280;6016;41.928;25.556;2023-05-19T10:23:55;99104.34;;;22.23;57.83
11912;BME280;6016;41.928;25.556;2023-05-19T10:26:22;99117.59;;;22.25;57.72
11912;BME280;6016;41.928;25.556;2023-05-19T10:28:50;99150.59;;;22.39;57.91
11912;BME280;6016;41.928;25.556;2023-05-19T10:31:20;99147.59;;;22.22;59.09
11912;BME280;6016;41.928;25.556;2023-05-19T10:34:04;99086.63;;;21.83;58.60
11912;BME280;6016;41.928;25.556;2023-05-19T10:36:43;98863.66;;;20.07;60.29
11912;BME280;6016;41.928;25.556;2023-05-19T10:39:15;99081.69;;;21.73;61.22
11912;BME280;6016;41.928;25.556;2023-05-19T10:41:47;99125.88;;;22.16;58.52
11912;BME280;6016;41.928;25.556;2023-05-19T10:44:27;98996.75;;;21.40;57.42
11912;BME280;6016;41.928;25.556;2023-05-19T10:46:57;99140.81;;;22.12;58.58
11912;BME280;6016;41.928;25.556;2023-05-19T10:49:25;99147.84;;;22.06;60.99
11912;BME280;6016;41.928;25.556;2023-05-19T10:51:54;99058.06;;;21.36;58.38
11912;BME280;6016;41.928;25.556;2023-05-19T10:54:39;99145.47;;;21.85;59.38
11912;BME280;6016;41.928;25.556;2023-05-19T10:57:07;98950.56;;;20.52;58.26
11912;BME280;6016;41.928;25.556;2023-05-19T10:59:36;99132.84;;;21.92;58.87
11912;BME280;6016;41.928;25.556;2023-05-19T11:02:04;99082.19;;;22.02;57.10
11912;BME280;6016;41.928;25.556;2023-05-19T11:04:44;99096.16;;;22.43;60.16
11912;BME280;6016;41.928;25.556;2023-05-19T11:07:16;99056.66;;;22.18;58.24
11912;BME280;6016;41.928;25.556;2023-05-19T11:09:47;99128.81;;;22.79;58.60
11912;BME280;6016;41.928;25.556;2023-05-19T11:12:19;99134.41;;;23.03;57.55
11912;BME280;6016;41.928;25.556;2023-05-19T11:14:46;99086.47;;;22.93;56.75
11912;BME280;6016;41.928;25.556;2023-05-19T11:17:14;99067.06;;;22.91;54.85
11912;BME280;6016;41.928;25.556;2023-05-19T11:19:52;99126.94;;;23.86;53.44
11912;BME280;6016;41.928;25.556;2023-05-19T11:22:22;99097.75;;;23.83;53.49
11912;BME280;6016;41.928;25.556;2023-05-19T11:24:50;99119.28;;;24.21;53.90
11912;BME280;6016;41.928;25.556;2023-05-19T11:27:26;99084.03;;;23.85;53.22
11912;BME280;6016;41.928;25.556;2023-05-19T11:29:54;99090.56;;;23.96;52.63
11912;BME280;6016;41.928;25.556;2023-05-19T11:32:24;99105.59;;;24.04;51.35
11912;BME280;6016;41.928;25.556;2023-05-19T11:34:54;98939.41;;;23.24;49.40
11912;BME280;6016;41.928;25.556;2023-05-19T11:37:21;99104.28;;;24.37;48.57
11912;BME280;6016;41.928;25.556;2023-05-19T11:39:48;99108.78;;;24.43;48.33
11912;BME280;6016;41.928;25.556;2023-05-19T11:42:15;99105.44;;;24.71;46.58
11912;BME280;6016;41.928;25.556;2023-05-19T11:44:42;99041.63;;;24.53;49.71
11912;BME280;6016;41.928;25.556;2023-05-19T11:47:10;99091.03;;;24.90;48.12
11912;BME280;6016;41.928;25.556;2023-05-19T11:49:37;99045.22;;;24.47;50.25
11912;BME280;6016;41.928;25.556;2023-05-19T11:52:06;99088.56;;;24.88;51.66
11912;BME280;6016;41.928;25.556;2023-05-19T11:54:33;99074.69;;;24.61;49.54
11912;BME280;6016;41.928;25.556;2023-05-19T11:57:01;99093.25;;;24.81;47.87
11912;BME280;6016;41.928;25.556;2023-05-19T11:59:29;99028.13;;;24.53;46.97
11912;BME280;6016;41.928;25.556;2023-05-19T12:01:57;99090.06;;;25.32;46.62
11912;BME280;6016;41.928;25.556;2023-05-19T12:04:24;99092.75;;;25.32;49.49
11912;BME280;6016;41.928;25.556;2023-05-19T12:06:51;99086.56;;;25.31;47.90
11912;BME280;6016;41.928;25.556;2023-05-19T12:09:21;99057.44;;;25.21;45.34
11912;BME280;6016;41.928;25.556;2023-05-19T12:11:48;99094.25;;;25.39;46.99
11912;BME280;6016;41.928;25.556;2023-05-19T12:14:16;98971.59;;;24.82;46.20
11912;BME280;6016;41.928;25.556;2023-05-19T12:16:43;99090.81;;;25.68;45.32
11912;BME280;6016;41.928;25.556;2023-05-19T12:19:10;99094.03;;;25.65;44.80
11912;BME280;6016;41.928;25.556;2023-05-19T12:21:37;99093.31;;;25.69;44.48
11912;BME280;6016;41.928;25.556;2023-05-19T12:24:05;99087.34;;;25.55;44.62
11912;BME280;6016;41.928;25.556;2023-05-19T12:26:34;99105.91;;;25.40;43.59
11912;BME280;6016;41.928;25.556;2023-05-19T12:29:03;99099.13;;;25.25;45.30
11912;BME280;6016;41.928;25.556;2023-05-19T12:31:31;99087.34;;;25.43;43.17
11912;BME280;6016;41.928;25.556;2023-05-19T12:33:58;99100.84;;;25.32;44.08
11912;BME280;6016;41.928;25.556;2023-05-19T12:36:26;98983.91;;;24.30;44.42
11912;BME280;6016;41.928;25.556;2023-05-19T12:38:53;99055.13;;;25.01;45.40
11912;BME280;6016;41.928;25.556;2023-05-19T12:41:20;99074.25;;;25.23;45.07
11912;BME280;6016;41.928;25.556;2023-05-19T12:43:48;99085.13;;;25.52;44.56
11912;BME280;6016;41.928;25.556;2023-05-19T12:46:17;99090.47;;;25.76;44.13
11912;BME280;6016;41.928;25.556;2023-05-19T12:48:45;99066.09;;;25.35;44.31
11912;BME280;6016;41.928;25.556;2023-05-19T12:51:15;98998.09;;;24.73;46.67
11912;BME280;6016;41.928;25.556;2023-05-19T12:53:43;99061.22;;;24.84;46.82
11912;BME280;6016;41.928;25.556;2023-05-19T12:56:11;99096.13;;;24.67;46.77
11912;BME280;6016;41.928;25.556;2023-05-19T12:58:38;99072.13;;;23.93;48.76
11912;BME280;6016;41.928;25.556;2023-05-19T13:01:13;99121.72;;;23.36;54.35
11912;BME280;6016;41.928;25.556;2023-05-19T13:03:40;99158.81;;;22.83;58.47
11912;BME280;6016;41.928;25.556;2023-05-19T13:06:07;99141.59;;;22.19;63.41